createdAt,value
2023-02-06T00:01:19.872Z,83.17
2023-02-06T00:03:47.142Z,83.69
2023-02-06T00:06:14.626Z,83.95
2023-02-06T00:08:42.143Z,83.87
2023-02-06T00:11:10.495Z,83.62
2023-02-06T00:13:38.125Z,84.18
2023-02-06T00:16:05.754Z,84.29
2023-02-06T00:18:34.344Z,84.49
2023-02-06T00:21:01.618Z,84.48
2023-02-06T00:23:28.856Z,83.38
2023-02-06T00:25:56.117Z,83.41
2023-02-06T00:28:23.389Z,84.30
2023-02-06T00:30:50.751Z,84.70
2023-02-06T00:33:19.013Z,84.40
2023-02-06T00:35:48.978Z,85.34
2023-02-06T00:38:16.384Z,84.47
2023-02-06T00:40:44.735Z,83.64
2023-02-06T00:43:12.006Z,83.89
2023-02-06T00:45:39.242Z,84.78
2023-02-06T00:48:06.714Z,84.43
2023-02-06T00:50:34.259Z,83.90
2023-02-06T00:53:02.817Z,84.49
2023-02-06T00:55:30.059Z,85.08
2023-02-06T00:57:57.328Z,85.16
2023-02-06T01:00:24.648Z,85.50
2023-02-06T01:02:51.923Z,86.22
2023-02-06T01:05:19.260Z,86.03
2023-02-06T01:07:46.525Z,86.28
2023-02-06T01:10:15.201Z,86.22
2023-02-06T01:12:42.893Z,85.58
2023-02-06T01:15:11.737Z,84.90
2023-02-06T01:17:39.510Z,84.73
2023-02-06T01:20:07.763Z,84.50
2023-02-06T01:22:35.953Z,85.27
2023-02-06T01:25:03.707Z,85.56
2023-02-06T01:27:32.346Z,85.56
2023-02-06T01:29:59.587Z,84.67
2023-02-06T01:32:26.838Z,84.82
2023-02-06T01:34:54.176Z,84.11
2023-02-06T01:37:21.455Z,83.63
2023-02-06T01:39:48.709Z,83.37
2023-02-06T01:42:15.957Z,83.60
2023-02-06T01:44:44.593Z,83.51
2023-02-06T01:47:11.883Z,82.70
2023-02-06T01:49:40.536Z,83.80
2023-02-06T01:52:10.650Z,83.65
2023-02-06T01:54:38.317Z,83.54
2023-02-06T01:57:06.978Z,83.67
2023-02-06T01:59:34.781Z,83.93
2023-02-06T02:02:03.527Z,83.24
2023-02-06T02:04:32.819Z,82.50
2023-02-06T02:07:03.718Z,83.35
2023-02-06T02:09:31.027Z,83.82
2023-02-06T02:11:58.379Z,84.19
2023-02-06T02:14:25.857Z,85.06
2023-02-06T02:16:58.055Z,83.90
2023-02-06T02:19:40.690Z,84.06
2023-02-06T02:22:34.909Z,85.18
2023-02-06T02:25:23.108Z,84.98
2023-02-06T02:28:05.890Z,85.58
2023-02-06T02:30:52.255Z,86.10
2023-02-06T02:33:27.491Z,86.88
2023-02-06T02:35:57.764Z,86.83
2023-02-06T02:38:28.480Z,86.49
2023-02-06T02:40:57.997Z,86.94
2023-02-06T02:43:30.609Z,85.99
2023-02-06T02:46:00.168Z,85.39
2023-02-06T02:48:29.134Z,84.98
2023-02-06T02:50:58.830Z,84.37
2023-02-06T02:53:26.470Z,83.93
2023-02-06T02:55:53.733Z,83.58
2023-02-06T02:58:23.953Z,83.99
2023-02-06T03:00:55.542Z,84.71
2023-02-06T03:03:24.159Z,84.66
2023-02-06T03:05:58.074Z,84.61
2023-02-06T03:08:29.415Z,84.42
2023-02-06T03:11:04.200Z,84.07
2023-02-06T03:13:33.021Z,83.10
2023-02-06T03:16:03.477Z,83.15
2023-02-06T03:18:34.867Z,84.21
2023-02-06T03:21:04.064Z,83.60
2023-02-06T03:23:36.188Z,84.60
2023-02-06T03:26:06.700Z,84.29
2023-02-06T03:28:35.258Z,83.71
2023-02-06T03:31:04.470Z,83.30
2023-02-06T03:33:33.193Z,83.60
2023-02-06T03:36:00.553Z,84.72
2023-02-06T03:38:28.504Z,84.68
2023-02-06T03:40:58.840Z,84.46
2023-02-06T03:43:27.669Z,85.29
2023-02-06T03:45:58.099Z,84.64
2023-02-06T03:48:28.386Z,85.51
2023-02-06T03:50:56.406Z,85.21
2023-02-06T03:53:25.331Z,84.64
2023-02-06T03:55:55.270Z,84.64
2023-02-06T03:58:24.689Z,84.37
2023-02-06T04:00:52.704Z,85.06
2023-02-06T04:03:21.491Z,86.37
2023-02-06T04:05:48.762Z,86.26
2023-02-06T04:08:16.007Z,85.27
2023-02-06T04:10:43.260Z,84.94
2023-02-06T04:13:10.505Z,85.40
2023-02-06T04:15:39.075Z,85.04
2023-02-06T04:18:06.385Z,85.51
2023-02-06T04:20:33.742Z,85.67
2023-02-06T04:23:01.121Z,86.27
2023-02-06T04:25:28.452Z,85.83
2023-02-06T04:27:55.720Z,86.32
2023-02-06T04:30:23.001Z,86.02
2023-02-06T04:32:51.617Z,86.85
2023-02-06T04:35:18.980Z,86.64
2023-02-06T04:37:46.554Z,86.78
2023-02-06T04:40:13.842Z,86.54
2023-02-06T04:42:41.082Z,86.49
2023-02-06T04:45:08.880Z,86.07
2023-02-06T04:47:36.122Z,86.21
2023-02-06T04:50:04.821Z,86.69
2023-02-06T04:52:32.110Z,86.55
2023-02-06T04:54:59.393Z,85.72
2023-02-06T04:57:26.754Z,85.94
2023-02-06T04:59:54.028Z,86.44
2023-02-06T05:02:21.313Z,86.41
2023-02-06T05:04:48.556Z,85.86
2023-02-06T05:07:17.154Z,85.03
2023-02-06T05:09:44.426Z,84.88
2023-02-06T05:12:13.973Z,84.22
2023-02-06T05:14:41.570Z,84.77
2023-02-06T05:17:08.818Z,84.74
2023-02-06T05:19:36.154Z,85.11
2023-02-06T05:22:03.432Z,84.89
2023-02-06T05:24:32.048Z,85.01
2023-02-06T05:26:59.381Z,84.66
2023-02-06T05:29:27.200Z,84.66
2023-02-06T05:31:54.537Z,84.35
2023-02-06T05:34:21.840Z,84.42
2023-02-06T05:36:49.093Z,83.97
2023-02-06T05:39:16.352Z,83.42
2023-02-06T05:41:44.950Z,84.82
2023-02-06T05:44:12.264Z,84.55
2023-02-06T05:46:39.563Z,84.33
2023-02-06T05:49:06.990Z,83.67
2023-02-06T05:51:34.321Z,83.72
2023-02-06T05:54:01.674Z,83.07
2023-02-06T05:56:28.933Z,83.59
2023-02-06T05:58:57.504Z,83.46
2023-02-06T06:01:24.756Z,83.52
2023-02-06T06:03:52.366Z,83.39
2023-02-06T06:06:19.654Z,82.92
2023-02-06T06:08:46.898Z,82.78
2023-02-06T06:11:14.140Z,82.93
2023-02-06T06:13:41.418Z,82.49
2023-02-06T06:16:10.068Z,82.40
2023-02-06T06:18:37.394Z,82.52
2023-02-06T06:21:04.828Z,82.72
2023-02-06T06:23:32.105Z,82.52
2023-02-06T06:25:59.378Z,82.17
2023-02-06T06:28:26.646Z,82.68
2023-02-06T06:31:00.956Z,83.48
2023-02-06T06:33:29.579Z,82.90
2023-02-06T06:35:56.850Z,82.44
2023-02-06T06:38:24.210Z,82.38
2023-02-06T06:40:51.750Z,82.15
2023-02-06T06:43:19.213Z,82.64
2023-02-06T06:45:46.513Z,82.27
2023-02-06T06:48:13.852Z,81.84
2023-02-06T06:50:42.445Z,82.06
2023-02-06T06:53:09.704Z,81.97
2023-02-06T06:55:37.248Z,81.17
2023-02-06T06:58:04.699Z,81.06
2023-02-06T07:00:32.241Z,81.29
2023-02-06T07:02:59.943Z,81.21
2023-02-06T07:05:27.377Z,81.02
2023-02-06T07:07:55.948Z,80.78
2023-02-06T07:10:23.253Z,81.18
2023-02-06T07:12:53.377Z,81.37
2023-02-06T07:15:21.172Z,81.28
2023-02-06T07:17:48.456Z,80.74
2023-02-06T07:20:15.930Z,80.60
2023-02-06T07:22:43.202Z,80.65
2023-02-06T07:25:12.128Z,81.57
2023-02-06T07:27:39.406Z,81.21
2023-02-06T07:30:07.107Z,80.81
2023-02-06T07:32:35.173Z,81.12
2023-02-06T07:35:02.444Z,81.10
2023-02-06T07:37:29.731Z,80.78
2023-02-06T07:39:56.982Z,80.74
2023-02-06T07:42:25.910Z,80.03
2023-02-06T07:44:53.178Z,79.95
2023-02-06T07:47:20.465Z,79.59
2023-02-06T07:49:47.727Z,79.93
2023-02-06T07:52:15.917Z,79.57
2023-02-06T07:54:43.198Z,78.88
2023-02-06T07:57:10.485Z,78.86
2023-02-06T07:59:39.057Z,79.00
2023-02-06T08:02:06.320Z,78.85
2023-02-06T08:04:35.538Z,78.01
2023-02-06T08:07:02.890Z,78.53
2023-02-06T08:09:30.196Z,77.64
2023-02-06T08:11:57.855Z,77.84
2023-02-06T08:14:25.140Z,78.75
2023-02-06T08:16:53.757Z,78.71
2023-02-06T08:19:21.096Z,79.11
2023-02-06T08:21:48.437Z,79.56
2023-02-06T08:24:15.696Z,79.39
2023-02-06T08:26:43.737Z,78.62
2023-02-06T08:29:11.131Z,78.85
2023-02-06T08:31:39.637Z,79.11
2023-02-06T08:34:09.260Z,79.26
2023-02-06T08:36:36.677Z,79.53
2023-02-06T08:39:04.867Z,78.85
2023-02-06T08:41:33.584Z,78.34
2023-02-06T08:44:02.149Z,78.59
2023-02-06T08:46:30.652Z,78.78
2023-02-06T08:48:59.143Z,78.17
2023-02-06T08:51:28.666Z,78.14
2023-02-06T08:53:57.126Z,78.49
2023-02-06T08:56:24.452Z,77.80
2023-02-06T08:58:51.918Z,77.49
2023-02-06T09:01:19.251Z,78.06
2023-02-06T09:03:46.591Z,78.06
2023-02-06T09:06:14.348Z,77.73
2023-02-06T09:08:43.291Z,77.70
2023-02-06T09:11:11.089Z,77.80
2023-02-06T09:13:38.509Z,77.62
2023-02-06T09:16:06.833Z,78.27
2023-02-06T09:18:34.283Z,77.95
2023-02-06T09:21:08.301Z,77.69
2023-02-06T09:23:35.874Z,78.00
2023-02-06T09:26:04.935Z,77.24
2023-02-06T09:28:32.452Z,77.53
2023-02-06T09:30:59.827Z,77.76
2023-02-06T09:33:27.244Z,77.74
2023-02-06T09:36:02.253Z,78.02
2023-02-06T09:38:29.535Z,77.90
2023-02-06T09:40:57.146Z,77.60
2023-02-06T09:43:26.050Z,77.54
2023-02-06T09:45:55.999Z,77.40
2023-02-06T09:48:24.598Z,77.53
2023-02-06T09:50:55.622Z,77.44
2023-02-06T09:53:26.040Z,78.02
2023-02-06T09:55:56.411Z,77.95
2023-02-06T09:58:27.585Z,78.01
2023-02-06T10:00:59.378Z,78.09
2023-02-06T10:03:35.609Z,78.15
2023-02-06T10:06:09.803Z,77.71
2023-02-06T10:08:38.936Z,78.46
2023-02-06T10:11:10.629Z,78.30
2023-02-06T10:13:39.938Z,78.30
2023-02-06T10:16:12.098Z,77.55
2023-02-06T10:18:42.652Z,77.07
2023-02-06T10:21:14.592Z,76.29
2023-02-06T10:23:45.081Z,76.23
2023-02-06T10:26:17.328Z,76.26
2023-02-06T10:28:45.311Z,75.70
2023-02-06T10:31:32.624Z,75.45
2023-02-06T10:34:13.145Z,75.63
2023-02-06T10:36:46.468Z,74.62
2023-02-06T10:39:34.835Z,75.11
2023-02-06T10:42:06.765Z,75.04
2023-02-06T10:44:38.283Z,74.78
2023-02-06T10:47:15.602Z,74.62
2023-02-06T10:49:46.333Z,75.33
2023-02-06T10:52:17.245Z,75.33
2023-02-06T10:54:50.113Z,75.91
2023-02-06T10:57:19.548Z,76.23
2023-02-06T10:59:48.441Z,76.47
2023-02-06T11:02:22.690Z,77.18
2023-02-06T11:04:52.770Z,77.66
2023-02-06T11:07:25.169Z,78.42
2023-02-06T11:09:52.740Z,78.80
2023-02-06T11:12:29.818Z,80.68
2023-02-06T11:14:59.636Z,80.81
2023-02-06T11:17:29.149Z,80.42
2023-02-06T11:20:01.668Z,80.29
2023-02-06T11:22:30.237Z,80.01
2023-02-06T11:25:02.246Z,79.89
2023-02-06T11:27:29.702Z,79.28
2023-02-06T11:29:58.651Z,79.92
2023-02-06T11:32:30.447Z,79.85
2023-02-06T11:34:59.902Z,79.76
2023-02-06T11:37:32.415Z,79.43
2023-02-06T11:40:15.400Z,79.51
2023-02-06T11:42:42.656Z,79.46
2023-02-06T11:45:24.204Z,78.89
2023-02-06T11:47:52.920Z,80.16
2023-02-06T11:50:23.605Z,80.57
2023-02-06T11:52:55.713Z,81.09
2023-02-06T11:55:23.838Z,81.61
2023-02-06T11:58:02.317Z,82.55
2023-02-06T12:00:30.389Z,82.81
2023-02-06T12:02:59.220Z,83.40
2023-02-06T12:05:29.235Z,83.31
2023-02-06T12:08:00.034Z,83.47
2023-02-06T12:10:28.066Z,84.13
2023-02-06T12:12:57.893Z,82.12
2023-02-06T12:15:45.465Z,82.00
2023-02-06T12:18:17.612Z,83.00
2023-02-06T12:20:48.863Z,82.30
2023-02-06T12:23:19.240Z,83.36
2023-02-06T12:25:49.262Z,83.08
2023-02-06T12:28:18.111Z,82.94
2023-02-06T12:30:48.421Z,81.82
2023-02-06T12:33:18.853Z,79.32
2023-02-06T12:35:49.656Z,79.12
2023-02-06T12:38:22.581Z,79.40
2023-02-06T12:40:52.873Z,80.40
2023-02-06T12:43:20.626Z,80.42
2023-02-06T12:45:50.835Z,79.59
2023-02-06T12:48:21.339Z,78.27
2023-02-06T12:50:52.520Z,78.37
2023-02-06T12:53:21.056Z,78.83
2023-02-06T12:55:50.867Z,79.87
2023-02-06T12:58:23.864Z,79.13
2023-02-06T13:01:00.785Z,77.62
2023-02-06T13:03:33.885Z,78.60
2023-02-06T13:06:03.498Z,79.02
2023-02-06T13:08:38.948Z,77.74
2023-02-06T13:11:07.757Z,76.93
2023-02-06T13:13:36.669Z,74.58
2023-02-06T13:16:05.396Z,73.96
2023-02-06T13:18:52.528Z,74.59
2023-02-06T13:21:21.401Z,73.97
2023-02-06T13:24:06.168Z,73.81
2023-02-06T13:26:57.473Z,74.62
2023-02-06T13:29:26.075Z,73.78
2023-02-06T13:32:08.452Z,72.31
2023-02-06T13:34:37.586Z,72.88
2023-02-06T13:37:20.540Z,71.78
2023-02-06T13:39:48.569Z,70.45
2023-02-06T13:42:30.848Z,68.62
2023-02-06T13:45:00.710Z,68.21
2023-02-06T13:47:46.623Z,69.03
2023-02-06T13:50:31.709Z,67.80
2023-02-06T13:53:13.933Z,67.20
2023-02-06T13:55:48.907Z,67.71
2023-02-06T13:58:35.054Z,67.49
2023-02-06T14:01:02.708Z,65.73
2023-02-06T14:03:31.356Z,66.88
2023-02-06T14:06:03.882Z,66.81
2023-02-06T14:08:37.998Z,67.27
2023-02-06T14:11:42.796Z,67.38
2023-02-06T14:14:17.663Z,67.38
2023-02-06T14:16:50.395Z,66.75
2023-02-06T14:19:23.757Z,66.61
2023-02-06T14:21:55.105Z,66.70
2023-02-06T14:24:33.239Z,64.15
2023-02-06T14:27:07.700Z,63.53
2023-02-06T14:29:40.249Z,64.09
2023-02-06T14:32:16.644Z,62.93
2023-02-06T14:34:52.461Z,60.74
2023-02-06T14:37:36.661Z,59.75
2023-02-06T14:40:04.795Z,60.36
2023-02-06T14:42:36.426Z,59.63
2023-02-06T14:45:06.167Z,59.71
2023-02-06T14:47:39.921Z,60.27
2023-02-06T14:50:08.542Z,60.16
2023-02-06T14:52:36.348Z,59.92
2023-02-06T14:55:22.593Z,59.73
2023-02-06T14:57:51.269Z,59.05
2023-02-06T15:00:19.933Z,60.46
2023-02-06T15:02:47.208Z,61.88
2023-02-06T15:05:24.157Z,62.64
2023-02-06T15:07:58.044Z,62.39
2023-02-06T15:10:28.274Z,61.67
2023-02-06T15:12:57.091Z,60.22
2023-02-06T15:15:25.359Z,60.59
2023-02-06T15:18:02.429Z,61.52
2023-02-06T15:20:32.347Z,61.57
2023-02-06T15:23:16.653Z,61.57
2023-02-06T15:25:50.769Z,59.32
2023-02-06T15:28:21.064Z,60.72
2023-02-06T15:30:53.297Z,60.28
2023-02-06T15:33:23.496Z,59.36
2023-02-06T15:35:52.974Z,60.00
2023-02-06T15:38:21.068Z,61.08
2023-02-06T15:40:50.075Z,60.55
2023-02-06T15:43:20.495Z,60.91
2023-02-06T15:45:48.505Z,61.93
2023-02-06T15:48:18.623Z,62.89
2023-02-06T15:50:55.782Z,63.68
2023-02-06T15:53:29.516Z,63.49
2023-02-06T15:56:01.032Z,62.89
2023-02-06T15:58:31.115Z,63.37
2023-02-06T16:00:58.790Z,63.47
2023-02-06T16:03:28.013Z,63.55
2023-02-06T16:05:56.436Z,64.17
2023-02-06T16:08:25.378Z,64.73
2023-02-06T16:10:53.807Z,64.07
2023-02-06T16:13:24.199Z,64.24
2023-02-06T16:16:07.319Z,64.24
2023-02-06T16:18:35.887Z,64.37
2023-02-06T16:21:14.669Z,64.49
2023-02-06T16:23:45.721Z,64.94
2023-02-06T16:26:15.851Z,64.83
2023-02-06T16:28:47.061Z,65.34
2023-02-06T16:31:15.858Z,64.66
2023-02-06T16:33:45.179Z,65.35
2023-02-06T16:36:13.660Z,66.24
2023-02-06T16:38:43.155Z,66.41
2023-02-06T16:41:28.295Z,66.84
2023-02-06T16:43:55.860Z,68.25
2023-02-06T16:46:24.567Z,68.66
2023-02-06T16:48:52.013Z,67.42
2023-02-06T16:51:20.429Z,67.63
2023-02-06T16:53:48.899Z,68.09
2023-02-06T16:56:16.826Z,67.22
2023-02-06T16:58:44.373Z,66.44
2023-02-06T17:01:16.110Z,68.17
2023-02-06T17:03:44.711Z,68.74
2023-02-06T17:06:14.874Z,69.47
2023-02-06T17:08:42.795Z,70.20
2023-02-06T17:11:11.100Z,71.02
2023-02-06T17:13:38.406Z,71.85
2023-02-06T17:16:05.987Z,71.26
2023-02-06T17:18:33.607Z,72.11
2023-02-06T17:21:02.202Z,71.98
2023-02-06T17:23:29.455Z,71.80
2023-02-06T17:25:56.821Z,71.44
2023-02-06T17:28:24.089Z,71.42
2023-02-06T17:30:52.081Z,70.73
2023-02-06T17:33:19.673Z,71.15
2023-02-06T17:35:47.359Z,72.11
2023-02-06T17:38:17.053Z,72.53
2023-02-06T17:40:44.499Z,72.82
2023-02-06T17:43:11.764Z,74.11
2023-02-06T17:45:39.754Z,74.00
2023-02-06T17:48:07.517Z,74.12
2023-02-06T17:50:36.873Z,74.44
2023-02-06T17:53:05.812Z,74.33
2023-02-06T17:55:35.633Z,75.00
2023-02-06T17:58:03.308Z,75.94
2023-02-06T18:00:30.593Z,76.03
2023-02-06T18:02:59.577Z,75.17
2023-02-06T18:05:27.442Z,75.70
2023-02-06T18:07:54.722Z,75.92
2023-02-06T18:10:22.737Z,75.75
2023-02-06T18:12:51.336Z,74.32
2023-02-06T18:15:18.704Z,74.95
2023-02-06T18:17:45.982Z,75.10
2023-02-06T18:20:13.685Z,75.08
2023-02-06T18:22:42.044Z,75.95
2023-02-06T18:25:13.959Z,77.51
2023-02-06T18:27:41.734Z,78.70
2023-02-06T18:30:11.721Z,79.80
2023-02-06T18:32:42.961Z,79.06
2023-02-06T18:35:10.624Z,78.78
2023-02-06T18:37:38.224Z,78.97
2023-02-06T18:40:05.826Z,78.28
2023-02-06T18:42:50.979Z,78.71
2023-02-06T18:45:20.101Z,78.51
2023-02-06T18:47:47.525Z,76.53
2023-02-06T18:50:15.277Z,77.20
2023-02-06T18:52:42.558Z,77.62
2023-02-06T18:55:09.928Z,78.39
2023-02-06T18:57:37.676Z,81.42
2023-02-06T19:00:06.161Z,80.78
2023-02-06T19:02:35.309Z,81.46
2023-02-06T19:05:02.589Z,80.42
2023-02-06T19:07:29.877Z,80.91
2023-02-06T19:09:58.399Z,79.92
2023-02-06T19:12:27.935Z,80.14
2023-02-06T19:14:55.320Z,81.52
2023-02-06T19:17:22.685Z,82.99
2023-02-06T19:19:51.552Z,84.01
2023-02-06T19:22:18.956Z,84.54
2023-02-06T19:24:46.233Z,84.67
2023-02-06T19:27:14.192Z,84.66
2023-02-06T19:29:41.473Z,84.71
2023-02-06T19:32:14.021Z,84.24
2023-02-06T19:34:41.928Z,82.77
2023-02-06T19:37:11.617Z,83.06
2023-02-06T19:39:40.446Z,83.21
2023-02-06T19:42:09.596Z,84.05
2023-02-06T19:44:37.558Z,84.44
2023-02-06T19:47:06.225Z,84.25
2023-02-06T19:49:33.842Z,84.05
2023-02-06T19:52:05.055Z,83.24
2023-02-06T19:54:33.987Z,83.00
2023-02-06T19:57:01.614Z,82.47
2023-02-06T19:59:29.992Z,82.66
2023-02-06T20:01:58.672Z,83.40
2023-02-06T20:04:27.596Z,83.13
2023-02-06T20:06:55.814Z,82.86
2023-02-06T20:09:23.766Z,83.09
2023-02-06T20:11:52.369Z,83.67
2023-02-06T20:14:20.050Z,83.88
2023-02-06T20:16:48.851Z,84.43
2023-02-06T20:19:18.553Z,84.87
2023-02-06T20:21:47.354Z,85.67
2023-02-06T20:24:21.280Z,84.73
2023-02-06T20:26:49.772Z,83.44
2023-02-06T20:29:20.265Z,82.71
2023-02-06T20:31:47.762Z,82.87
2023-02-06T20:34:15.444Z,83.49
2023-02-06T20:36:43.320Z,84.09
2023-02-06T20:39:11.678Z,84.39
2023-02-06T20:41:40.189Z,84.27
2023-02-06T20:44:08.905Z,84.20
2023-02-06T20:46:38.555Z,84.73
2023-02-06T20:49:09.152Z,85.98
2023-02-06T20:51:36.760Z,86.48
2023-02-06T20:54:04.856Z,86.69
2023-02-06T20:56:32.581Z,85.15
2023-02-06T20:59:01.241Z,85.19
2023-02-06T21:01:29.766Z,85.50
2023-02-06T21:03:59.697Z,85.70
2023-02-06T21:06:28.006Z,86.96
2023-02-06T21:08:59.791Z,87.71
2023-02-06T21:11:29.338Z,88.62
2023-02-06T21:13:57.882Z,88.56
2023-02-06T21:16:25.438Z,88.02
2023-02-06T21:18:53.660Z,86.99
2023-02-06T21:21:22.914Z,87.61
2023-02-06T21:23:50.501Z,88.33
2023-02-06T21:26:18.589Z,87.28
2023-02-06T21:28:46.596Z,86.62
2023-02-06T21:31:14.917Z,85.67
2023-02-06T21:33:42.483Z,86.21
2023-02-06T21:36:10.390Z,87.42
2023-02-06T21:38:39.507Z,86.99
2023-02-06T21:41:07.181Z,87.39
2023-02-06T21:43:34.774Z,86.37
2023-02-06T21:46:02.220Z,85.84
2023-02-06T21:48:29.748Z,85.49
2023-02-06T21:50:57.014Z,86.09
2023-02-06T21:53:25.475Z,86.13
2023-02-06T21:55:54.117Z,86.07
2023-02-06T21:58:21.382Z,87.00
2023-02-06T22:00:48.654Z,87.54
2023-02-06T22:03:16.096Z,87.71
2023-02-06T22:05:43.365Z,87.91
2023-02-06T22:08:10.631Z,88.33
2023-02-06T22:10:38.132Z,88.34
2023-02-06T22:13:06.866Z,87.93
2023-02-06T22:15:34.599Z,87.85
2023-02-06T22:18:02.068Z,87.58
2023-02-06T22:20:29.369Z,88.00
2023-02-06T22:22:56.663Z,88.33
2023-02-06T22:25:23.920Z,88.01
2023-02-06T22:27:51.247Z,88.46
2023-02-06T22:30:20.093Z,88.48
2023-02-06T22:32:47.432Z,88.08
2023-02-06T22:35:14.690Z,88.49
2023-02-06T22:37:44.456Z,88.09
2023-02-06T22:40:12.166Z,87.27
2023-02-06T22:42:39.415Z,88.28
2023-02-06T22:45:07.353Z,88.68
2023-02-06T22:47:35.957Z,89.00
2023-02-06T22:50:03.242Z,88.08
2023-02-06T22:52:48.261Z,88.22
2023-02-06T22:55:15.659Z,89.12
2023-02-06T22:57:42.943Z,89.05
2023-02-06T23:00:12.057Z,89.00
2023-02-06T23:02:40.672Z,88.96
2023-02-06T23:05:09.392Z,89.30
2023-02-06T23:07:36.854Z,89.82
2023-02-06T23:10:04.155Z,90.19
2023-02-06T23:12:31.402Z,90.41
2023-02-06T23:14:58.674Z,89.44
2023-02-06T23:17:26.266Z,88.63
2023-02-06T23:19:54.880Z,89.37
2023-02-06T23:22:22.156Z,89.05
2023-02-06T23:24:50.624Z,89.85
2023-02-06T23:27:19.620Z,90.49
2023-02-06T23:29:46.923Z,89.55
2023-02-06T23:32:14.179Z,90.03
2023-02-06T23:34:41.456Z,90.24
2023-02-06T23:37:10.045Z,90.19
2023-02-06T23:39:37.338Z,88.99
2023-02-06T23:42:04.790Z,88.13
2023-02-06T23:44:32.355Z,88.33
2023-02-06T23:46:59.643Z,88.53
2023-02-06T23:49:26.931Z,88.71
2023-02-06T23:51:54.216Z,87.41
2023-02-06T23:54:22.842Z,87.09
2023-02-06T23:56:50.151Z,88.07
2023-02-06T23:59:17.431Z,88.17
